sensor_id;sensor_type;location;lat;lon;timestamp;P1;durP1;ratioP1;P2;durP2;ratioP2
22429;SDS011;11382;48.086;11.632;2024-02-23T00:01:44;0.22;;;0.13;;
22429;SDS011;11382;48.086;11.632;2024-02-23T00:04:12;0.25;;;0.13;;
22429;SDS011;11382;48.086;11.632;2024-02-23T00:06:42;0.95;;;0.10;;
22429;SDS011;11382;48.086;11.632;2024-02-23T00:09:09;0.10;;;0.10;;
22429;SDS011;11382;48.086;11.632;2024-02-23T00:11:39;0.10;;;0.10;;
22429;SDS011;11382;48.086;11.632;2024-02-23T00:14:11;0.73;;;0.20;;
22429;SDS011;11382;48.086;11.632;2024-02-23T00:16:39;0.00;;;0.00;;
22429;SDS011;11382;48.086;11.632;2024-02-23T00:19:08;0.20;;;0.20;;
22429;SDS011;11382;48.086;11.632;2024-02-23T00:21:36;0.30;;;0.25;;
22429;SDS011;11382;48.086;11.632;2024-02-23T00:24:07;0.30;;;0.10;;
22429;SDS011;11382;48.086;11.632;2024-02-23T00:26:35;0.00;;;0.00;;
22429;SDS011;11382;48.086;11.632;2024-02-23T00:29:03;0.00;;;0.00;;
22429;SDS011;11382;48.086;11.632;2024-02-23T00:31:31;0.17;;;0.10;;
22429;SDS011;11382;48.086;11.632;2024-02-23T00:33:59;0.40;;;0.20;;
22429;SDS011;11382;48.086;11.632;2024-02-23T00:36:27;0.17;;;0.10;;
22429;SDS011;11382;48.086;11.632;2024-02-23T00:38:55;0.70;;;0.20;;
22429;SDS011;11382;48.086;11.632;2024-02-23T00:41:25;0.03;;;0.03;;
22429;SDS011;11382;48.086;11.632;2024-02-23T00:43:53;0.08;;;0.08;;
22429;SDS011;11382;48.086;11.632;2024-02-23T00:46:21;0.35;;;0.10;;
22429;SDS011;11382;48.086;11.632;2024-02-23T00:48:49;0.10;;;0.10;;
22429;SDS011;11382;48.086;11.632;2024-02-23T00:51:17;0.00;;;0.00;;
22429;SDS011;11382;48.086;11.632;2024-02-23T00:53:46;0.10;;;0.10;;
22429;SDS011;11382;48.086;11.632;2024-02-23T00:56:14;0.47;;;0.00;;
22429;SDS011;11382;48.086;11.632;2024-02-23T00:58:43;0.10;;;0.10;;
22429;SDS011;11382;48.086;11.632;2024-02-23T01:01:11;0.10;;;0.10;;
22429;SDS011;11382;48.086;11.632;2024-02-23T01:03:39;0.15;;;0.10;;
22429;SDS011;11382;48.086;11.632;2024-02-23T01:06:08;0.10;;;0.10;;
22429;SDS011;11382;48.086;11.632;2024-02-23T01:08:36;0.00;;;0.00;;
22429;SDS011;11382;48.086;11.632;2024-02-23T01:11:04;0.13;;;0.10;;
22429;SDS011;11382;48.086;11.632;2024-02-23T01:13:32;1.50;;;0.22;;
22429;SDS011;11382;48.086;11.632;2024-02-23T01:16:01;0.13;;;0.10;;
22429;SDS011;11382;48.086;11.632;2024-02-23T01:18:29;0.45;;;0.20;;
22429;SDS011;11382;48.086;11.632;2024-02-23T01:20:57;0.45;;;0.15;;
22429;SDS011;11382;48.086;11.632;2024-02-23T01:23:25;0.15;;;0.10;;
22429;SDS011;11382;48.086;11.632;2024-02-23T01:25:54;0.10;;;0.10;;
22429;SDS011;11382;48.086;11.632;2024-02-23T01:28:22;0.20;;;0.20;;
22429;SDS011;11382;48.086;11.632;2024-02-23T01:30:50;0.10;;;0.10;;
22429;SDS011;11382;48.086;11.632;2024-02-23T01:33:19;0.10;;;0.10;;
22429;SDS011;11382;48.086;11.632;2024-02-23T01:35:47;0.30;;;0.20;;
22429;SDS011;11382;48.086;11.632;2024-02-23T01:38:17;0.63;;;0.20;;
22429;SDS011;11382;48.086;11.632;2024-02-23T01:40:47;0.10;;;0.10;;
22429;SDS011;11382;48.086;11.632;2024-02-23T01:43:15;0.22;;;0.20;;
22429;SDS011;11382;48.086;11.632;2024-02-23T01:45:44;0.82;;;0.30;;
22429;SDS011;11382;48.086;11.632;2024-02-23T01:48:12;1.55;;;0.10;;
22429;SDS011;11382;48.086;11.632;2024-02-23T01:50:41;0.80;;;0.10;;
22429;SDS011;11382;48.086;11.632;2024-02-23T01:53:10;0.22;;;0.10;;
22429;SDS011;11382;48.086;11.632;2024-02-23T01:55:40;0.00;;;0.00;;
22429;SDS011;11382;48.086;11.632;2024-02-23T01:58:09;0.00;;;0.00;;
22429;SDS011;11382;48.086;11.632;2024-02-23T02:00:37;0.10;;;0.10;;
22429;SDS011;11382;48.086;11.632;2024-02-23T02:03:05;0.10;;;0.05;;
22429;SDS011;11382;48.086;11.632;2024-02-23T02:09:00;0.52;;;0.20;;
22429;SDS011;11382;48.086;11.632;2024-02-23T02:11:28;0.20;;;0.20;;
22429;SDS011;11382;48.086;11.632;2024-02-23T02:13:56;0.10;;;0.10;;
22429;SDS011;11382;48.086;11.632;2024-02-23T02:16:25;0.20;;;0.10;;
22429;SDS011;11382;48.086;11.632;2024-02-23T02:18:53;0.10;;;0.10;;
22429;SDS011;11382;48.086;11.632;2024-02-23T02:21:21;0.05;;;0.05;;
22429;SDS011;11382;48.086;11.632;2024-02-23T02:23:51;0.00;;;0.00;;
22429;SDS011;11382;48.086;11.632;2024-02-23T02:26:20;0.15;;;0.10;;
22429;SDS011;11382;48.086;11.632;2024-02-23T02:28:48;0.00;;;0.00;;
22429;SDS011;11382;48.086;11.632;2024-02-23T02:31:16;0.22;;;0.10;;
22429;SDS011;11382;48.086;11.632;2024-02-23T02:33:44;0.00;;;0.00;;
22429;SDS011;11382;48.086;11.632;2024-02-23T02:36:13;0.00;;;0.00;;
22429;SDS011;11382;48.086;11.632;2024-02-23T02:38:41;0.10;;;0.10;;
22429;SDS011;11382;48.086;11.632;2024-02-23T02:41:09;0.30;;;0.20;;
22429;SDS011;11382;48.086;11.632;2024-02-23T02:43:38;0.20;;;0.10;;
22429;SDS011;11382;48.086;11.632;2024-02-23T02:46:06;0.17;;;0.10;;
22429;SDS011;11382;48.086;11.632;2024-02-23T02:48:34;1.35;;;0.10;;
22429;SDS011;11382;48.086;11.632;2024-02-23T02:51:03;0.10;;;0.03;;
22429;SDS011;11382;48.086;11.632;2024-02-23T02:53:31;0.00;;;0.00;;
22429;SDS011;11382;48.086;11.632;2024-02-23T02:55:59;0.10;;;0.10;;
22429;SDS011;11382;48.086;11.632;2024-02-23T02:58:27;0.10;;;0.10;;
22429;SDS011;11382;48.086;11.632;2024-02-23T03:00:57;1.65;;;0.10;;
22429;SDS011;11382;48.086;11.632;2024-02-23T03:03:25;0.30;;;0.10;;
22429;SDS011;11382;48.086;11.632;2024-02-23T03:05:53;0.10;;;0.10;;
22429;SDS011;11382;48.086;11.632;2024-02-23T03:08:21;0.10;;;0.10;;
22429;SDS011;11382;48.086;11.632;2024-02-23T03:10:49;0.08;;;0.00;;
22429;SDS011;11382;48.086;11.632;2024-02-23T03:13:17;0.43;;;0.20;;
22429;SDS011;11382;48.086;11.632;2024-02-23T03:15:45;0.13;;;0.10;;
22429;SDS011;11382;48.086;11.632;2024-02-23T03:18:14;0.55;;;0.10;;
22429;SDS011;11382;48.086;11.632;2024-02-23T03:20:42;0.10;;;0.10;;
22429;SDS011;11382;48.086;11.632;2024-02-23T03:23:11;0.15;;;0.10;;
22429;SDS011;11382;48.086;11.632;2024-02-23T03:25:39;0.10;;;0.10;;
22429;SDS011;11382;48.086;11.632;2024-02-23T03:28:08;0.20;;;0.10;;
22429;SDS011;11382;48.086;11.632;2024-02-23T03:30:35;0.75;;;0.30;;
22429;SDS011;11382;48.086;11.632;2024-02-23T03:33:04;0.30;;;0.20;;
22429;SDS011;11382;48.086;11.632;2024-02-23T03:35:33;0.88;;;0.22;;
22429;SDS011;11382;48.086;11.632;2024-02-23T03:38:01;0.10;;;0.10;;
22429;SDS011;11382;48.086;11.632;2024-02-23T03:40:29;0.25;;;0.10;;
22429;SDS011;11382;48.086;11.632;2024-02-23T03:42:59;1.10;;;0.10;;
22429;SDS011;11382;48.086;11.632;2024-02-23T03:45:28;0.55;;;0.20;;
22429;SDS011;11382;48.086;11.632;2024-02-23T03:47:56;0.17;;;0.10;;
22429;SDS011;11382;48.086;11.632;2024-02-23T03:50:25;0.38;;;0.10;;
22429;SDS011;11382;48.086;11.632;2024-02-23T03:52:55;0.68;;;0.20;;
22429;SDS011;11382;48.086;11.632;2024-02-23T03:55:23;0.20;;;0.20;;
22429;SDS011;11382;48.086;11.632;2024-02-23T03:57:51;0.13;;;0.13;;
22429;SDS011;11382;48.086;11.632;2024-02-23T04:00:19;0.40;;;0.40;;
22429;SDS011;11382;48.086;11.632;2024-02-23T04:02:49;1.38;;;0.22;;
22429;SDS011;11382;48.086;11.632;2024-02-23T04:05:17;0.47;;;0.17;;
22429;SDS011;11382;48.086;11.632;2024-02-23T04:07:45;0.10;;;0.10;;
22429;SDS011;11382;48.086;11.632;2024-02-23T04:10:15;0.68;;;0.38;;
22429;SDS011;11382;48.086;11.632;2024-02-23T04:12:46;0.10;;;0.10;;
22429;SDS011;11382;48.086;11.632;2024-02-23T04:15:14;0.45;;;0.10;;
22429;SDS011;11382;48.086;11.632;2024-02-23T04:17:42;0.40;;;0.20;;
22429;SDS011;11382;48.086;11.632;2024-02-23T04:20:10;0.40;;;0.20;;
22429;SDS011;11382;48.086;11.632;2024-02-23T04:22:40;0.10;;;0.10;;
22429;SDS011;11382;48.086;11.632;2024-02-23T04:25:08;0.30;;;0.20;;
22429;SDS011;11382;48.086;11.632;2024-02-23T04:27:37;0.17;;;0.17;;
22429;SDS011;11382;48.086;11.632;2024-02-23T04:30:06;2.40;;;0.50;;
22429;SDS011;11382;48.086;11.632;2024-02-23T04:32:34;1.10;;;0.30;;
22429;SDS011;11382;48.086;11.632;2024-02-23T04:35:03;0.10;;;0.10;;
22429;SDS011;11382;48.086;11.632;2024-02-23T04:37:31;0.20;;;0.15;;
22429;SDS011;11382;48.086;11.632;2024-02-23T04:40:03;0.35;;;0.10;;
22429;SDS011;11382;48.086;11.632;2024-02-23T04:42:32;0.32;;;0.13;;
22429;SDS011;11382;48.086;11.632;2024-02-23T04:45:01;0.90;;;0.10;;
22429;SDS011;11382;48.086;11.632;2024-02-23T04:47:29;0.10;;;0.10;;
22429;SDS011;11382;48.086;11.632;2024-02-23T04:49:59;0.47;;;0.13;;
22429;SDS011;11382;48.086;11.632;2024-02-23T04:52:27;2.17;;;0.20;;
22429;SDS011;11382;48.086;11.632;2024-02-23T04:54:55;0.43;;;0.30;;
22429;SDS011;11382;48.086;11.632;2024-02-23T04:57:23;0.22;;;0.22;;
22429;SDS011;11382;48.086;11.632;2024-02-23T04:59:51;0.20;;;0.20;;
22429;SDS011;11382;48.086;11.632;2024-02-23T05:02:20;0.20;;;0.10;;
22429;SDS011;11382;48.086;11.632;2024-02-23T05:04:48;0.30;;;0.20;;
22429;SDS011;11382;48.086;11.632;2024-02-23T05:07:16;0.20;;;0.20;;
22429;SDS011;11382;48.086;11.632;2024-02-23T05:09:44;0.10;;;0.10;;
22429;SDS011;11382;48.086;11.632;2024-02-23T05:12:12;0.32;;;0.13;;
22429;SDS011;11382;48.086;11.632;2024-02-23T05:14:40;0.40;;;0.20;;
22429;SDS011;11382;48.086;11.632;2024-02-23T05:17:08;0.28;;;0.28;;
22429;SDS011;11382;48.086;11.632;2024-02-23T05:19:38;0.20;;;0.20;;
22429;SDS011;11382;48.086;11.632;2024-02-23T05:22:06;1.45;;;0.20;;
22429;SDS011;11382;48.086;11.632;2024-02-23T05:24:34;0.98;;;0.30;;
22429;SDS011;11382;48.086;11.632;2024-02-23T05:27:02;0.38;;;0.28;;
22429;SDS011;11382;48.086;11.632;2024-02-23T05:29:30;1.88;;;0.30;;
22429;SDS011;11382;48.086;11.632;2024-02-23T05:31:58;0.30;;;0.20;;
22429;SDS011;11382;48.086;11.632;2024-02-23T05:34:26;2.70;;;0.40;;
22429;SDS011;11382;48.086;11.632;2024-02-23T05:36:56;0.17;;;0.17;;
22429;SDS011;11382;48.086;11.632;2024-02-23T05:39:24;0.50;;;0.30;;
22429;SDS011;11382;48.086;11.632;2024-02-23T05:41:52;0.32;;;0.20;;
22429;SDS011;11382;48.086;11.632;2024-02-23T05:44:20;0.32;;;0.30;;
22429;SDS011;11382;48.086;11.632;2024-02-23T05:46:48;0.70;;;0.40;;
22429;SDS011;11382;48.086;11.632;2024-02-23T05:49:16;0.50;;;0.20;;
22429;SDS011;11382;48.086;11.632;2024-02-23T05:51:45;2.35;;;0.40;;
22429;SDS011;11382;48.086;11.632;2024-02-23T05:54:14;0.63;;;0.20;;
22429;SDS011;11382;48.086;11.632;2024-02-23T05:56:43;0.50;;;0.30;;
22429;SDS011;11382;48.086;11.632;2024-02-23T05:59:12;0.57;;;0.40;;
22429;SDS011;11382;48.086;11.632;2024-02-23T06:01:40;0.65;;;0.30;;
22429;SDS011;11382;48.086;11.632;2024-02-23T06:04:08;0.10;;;0.10;;
22429;SDS011;11382;48.086;11.632;2024-02-23T06:06:36;0.85;;;0.30;;
22429;SDS011;11382;48.086;11.632;2024-02-23T06:09:04;1.55;;;0.30;;
22429;SDS011;11382;48.086;11.632;2024-02-23T06:11:34;0.80;;;0.45;;
22429;SDS011;11382;48.086;11.632;2024-02-23T06:14:02;0.20;;;0.20;;
22429;SDS011;11382;48.086;11.632;2024-02-23T06:16:30;0.20;;;0.20;;
22429;SDS011;11382;48.086;11.632;2024-02-23T06:18:58;0.30;;;0.20;;
22429;SDS011;11382;48.086;11.632;2024-02-23T06:21:27;0.68;;;0.32;;
22429;SDS011;11382;48.086;11.632;2024-02-23T06:23:55;0.47;;;0.20;;
22429;SDS011;11382;48.086;11.632;2024-02-23T06:26:23;0.32;;;0.30;;
22429;SDS011;11382;48.086;11.632;2024-02-23T06:28:52;0.28;;;0.20;;
22429;SDS011;11382;48.086;11.632;2024-02-23T06:31:20;0.95;;;0.20;;
22429;SDS011;11382;48.086;11.632;2024-02-23T06:33:48;1.23;;;0.40;;
22429;SDS011;11382;48.086;11.632;2024-02-23T06:36:18;1.00;;;0.40;;
22429;SDS011;11382;48.086;11.632;2024-02-23T06:38:46;0.70;;;0.30;;
22429;SDS011;11382;48.086;11.632;2024-02-23T06:41:14;1.33;;;0.32;;
22429;SDS011;11382;48.086;11.632;2024-02-23T06:43:42;0.75;;;0.45;;
22429;SDS011;11382;48.086;11.632;2024-02-23T06:46:12;0.45;;;0.32;;
22429;SDS011;11382;48.086;11.632;2024-02-23T06:48:40;0.20;;;0.20;;
22429;SDS011;11382;48.086;11.632;2024-02-23T06:51:08;0.45;;;0.30;;
22429;SDS011;11382;48.086;11.632;2024-02-23T06:53:36;0.60;;;0.30;;
22429;SDS011;11382;48.086;11.632;2024-02-23T06:56:05;0.45;;;0.20;;
22429;SDS011;11382;48.086;11.632;2024-02-23T06:58:34;0.43;;;0.30;;
22429;SDS011;11382;48.086;11.632;2024-02-23T07:01:02;1.02;;;0.22;;
22429;SDS011;11382;48.086;11.632;2024-02-23T07:03:33;0.40;;;0.20;;
22429;SDS011;11382;48.086;11.632;2024-02-23T07:06:03;0.30;;;0.20;;
22429;SDS011;11382;48.086;11.632;2024-02-23T07:08:31;0.73;;;0.30;;
22429;SDS011;11382;48.086;11.632;2024-02-23T07:10:59;2.30;;;0.50;;
22429;SDS011;11382;48.086;11.632;2024-02-23T07:13:27;0.70;;;0.30;;
22429;SDS011;11382;48.086;11.632;2024-02-23T07:15:56;0.65;;;0.40;;
22429;SDS011;11382;48.086;11.632;2024-02-23T07:18:24;0.68;;;0.47;;
22429;SDS011;11382;48.086;11.632;2024-02-23T07:20:54;1.10;;;0.32;;
22429;SDS011;11382;48.086;11.632;2024-02-23T07:23:22;0.88;;;0.43;;
22429;SDS011;11382;48.086;11.632;2024-02-23T07:25:50;0.38;;;0.38;;
22429;SDS011;11382;48.086;11.632;2024-02-23T07:28:18;1.73;;;0.32;;
22429;SDS011;11382;48.086;11.632;2024-02-23T07:30:48;3.03;;;0.50;;
22429;SDS011;11382;48.086;11.632;2024-02-23T07:33:16;2.05;;;0.32;;
22429;SDS011;11382;48.086;11.632;2024-02-23T07:35:45;2.03;;;0.30;;
22429;SDS011;11382;48.086;11.632;2024-02-23T07:38:14;0.88;;;0.40;;
22429;SDS011;11382;48.086;11.632;2024-02-23T07:40:44;0.73;;;0.50;;
22429;SDS011;11382;48.086;11.632;2024-02-23T07:43:12;2.15;;;0.38;;
22429;SDS011;11382;48.086;11.632;2024-02-23T07:45:40;1.13;;;0.60;;
22429;SDS011;11382;48.086;11.632;2024-02-23T07:48:09;0.80;;;0.60;;
22429;SDS011;11382;48.086;11.632;2024-02-23T07:50:37;2.33;;;0.57;;
22429;SDS011;11382;48.086;11.632;2024-02-23T07:53:05;2.75;;;0.60;;
22429;SDS011;11382;48.086;11.632;2024-02-23T07:55:35;1.02;;;0.38;;
22429;SDS011;11382;48.086;11.632;2024-02-23T07:58:03;0.80;;;0.40;;
22429;SDS011;11382;48.086;11.632;2024-02-23T08:00:31;2.88;;;0.40;;
22429;SDS011;11382;48.086;11.632;2024-02-23T08:03:01;1.63;;;0.65;;
22429;SDS011;11382;48.086;11.632;2024-02-23T08:05:29;1.50;;;0.40;;
22429;SDS011;11382;48.086;11.632;2024-02-23T08:07:57;1.17;;;0.60;;
22429;SDS011;11382;48.086;11.632;2024-02-23T08:10:25;1.95;;;0.50;;
22429;SDS011;11382;48.086;11.632;2024-02-23T08:12:55;0.88;;;0.50;;
22429;SDS011;11382;48.086;11.632;2024-02-23T08:15:23;0.95;;;0.50;;
22429;SDS011;11382;48.086;11.632;2024-02-23T08:17:51;2.50;;;0.82;;
22429;SDS011;11382;48.086;11.632;2024-02-23T08:20:19;1.65;;;0.40;;
22429;SDS011;11382;48.086;11.632;2024-02-23T08:22:47;3.10;;;0.70;;
22429;SDS011;11382;48.086;11.632;2024-02-23T08:25:15;1.35;;;0.47;;
22429;SDS011;11382;48.086;11.632;2024-02-23T08:27:44;1.52;;;0.50;;
22429;SDS011;11382;48.086;11.632;2024-02-23T08:30:14;1.45;;;0.50;;
22429;SDS011;11382;48.086;11.632;2024-02-23T08:32:42;1.08;;;0.50;;
22429;SDS011;11382;48.086;11.632;2024-02-23T08:35:11;1.13;;;0.50;;
22429;SDS011;11382;48.086;11.632;2024-02-23T08:37:39;0.70;;;0.40;;
22429;SDS011;11382;48.086;11.632;2024-02-23T08:40:08;1.10;;;0.63;;
22429;SDS011;11382;48.086;11.632;2024-02-23T08:42:37;1.42;;;0.80;;
22429;SDS011;11382;48.086;11.632;2024-02-23T08:45:05;0.63;;;0.40;;
22429;SDS011;11382;48.086;11.632;2024-02-23T08:47:35;1.00;;;0.38;;
22429;SDS011;11382;48.086;11.632;2024-02-23T08:50:04;2.90;;;0.80;;
22429;SDS011;11382;48.086;11.632;2024-02-23T08:52:33;2.25;;;0.50;;
22429;SDS011;11382;48.086;11.632;2024-02-23T08:55:01;1.48;;;0.43;;
22429;SDS011;11382;48.086;11.632;2024-02-23T08:57:30;4.25;;;0.47;;
22429;SDS011;11382;48.086;11.632;2024-02-23T08:59:58;4.05;;;0.57;;
22429;SDS011;11382;48.086;11.632;2024-02-23T09:02:26;1.92;;;0.60;;
22429;SDS011;11382;48.086;11.632;2024-02-23T09:04:55;0.30;;;0.30;;
22429;SDS011;11382;48.086;11.632;2024-02-23T09:07:23;3.28;;;0.82;;
22429;SDS011;11382;48.086;11.632;2024-02-23T09:09:52;3.35;;;0.50;;
22429;SDS011;11382;48.086;11.632;2024-02-23T09:12:20;0.63;;;0.45;;
22429;SDS011;11382;48.086;11.632;2024-02-23T09:14:55;1.27;;;0.40;;
22429;SDS011;11382;48.086;11.632;2024-02-23T09:17:23;2.05;;;0.40;;
22429;SDS011;11382;48.086;11.632;2024-02-23T09:19:52;2.03;;;0.60;;
22429;SDS011;11382;48.086;11.632;2024-02-23T09:22:21;0.55;;;0.55;;
22429;SDS011;11382;48.086;11.632;2024-02-23T09:24:50;4.85;;;0.80;;
22429;SDS011;11382;48.086;11.632;2024-02-23T09:27:20;0.95;;;0.52;;
22429;SDS011;11382;48.086;11.632;2024-02-23T09:29:48;1.80;;;0.50;;
22429;SDS011;11382;48.086;11.632;2024-02-23T09:32:16;2.45;;;0.47;;
22429;SDS011;11382;48.086;11.632;2024-02-23T09:34:44;0.50;;;0.20;;
22429;SDS011;11382;48.086;11.632;2024-02-23T09:37:12;1.13;;;0.60;;
22429;SDS011;11382;48.086;11.632;2024-02-23T09:39:41;0.90;;;0.38;;
22429;SDS011;11382;48.086;11.632;2024-02-23T09:42:10;0.85;;;0.50;;
22429;SDS011;11382;48.086;11.632;2024-02-23T09:44:38;0.30;;;0.28;;
22429;SDS011;11382;48.086;11.632;2024-02-23T09:47:09;1.98;;;0.50;;
22429;SDS011;11382;48.086;11.632;2024-02-23T09:49:38;0.60;;;0.40;;
22429;SDS011;11382;48.086;11.632;2024-02-23T09:52:07;0.80;;;0.47;;
22429;SDS011;11382;48.086;11.632;2024-02-23T09:54:43;0.93;;;0.40;;
22429;SDS011;11382;48.086;11.632;2024-02-23T09:57:11;1.77;;;0.60;;
22429;SDS011;11382;48.086;11.632;2024-02-23T09:59:41;0.43;;;0.40;;
22429;SDS011;11382;48.086;11.632;2024-02-23T10:02:09;2.33;;;0.43;;
22429;SDS011;11382;48.086;11.632;2024-02-23T10:04:42;1.63;;;0.52;;
22429;SDS011;11382;48.086;11.632;2024-02-23T10:07:13;1.15;;;0.50;;
22429;SDS011;11382;48.086;11.632;2024-02-23T10:09:44;1.15;;;0.43;;
22429;SDS011;11382;48.086;11.632;2024-02-23T10:12:12;2.95;;;0.60;;
22429;SDS011;11382;48.086;11.632;2024-02-23T10:14:41;1.15;;;0.70;;
22429;SDS011;11382;48.086;11.632;2024-02-23T10:17:09;1.15;;;0.55;;
22429;SDS011;11382;48.086;11.632;2024-02-23T10:19:37;0.38;;;0.35;;
22429;SDS011;11382;48.086;11.632;2024-02-23T10:22:06;0.73;;;0.50;;
22429;SDS011;11382;48.086;11.632;2024-02-23T10:24:34;0.52;;;0.32;;
22429;SDS011;11382;48.086;11.632;2024-02-23T10:27:05;0.45;;;0.40;;
22429;SDS011;11382;48.086;11.632;2024-02-23T10:29:33;1.15;;;0.40;;
22429;SDS011;11382;48.086;11.632;2024-02-23T10:32:01;1.52;;;0.38;;
22429;SDS011;11382;48.086;11.632;2024-02-23T10:34:30;0.57;;;0.43;;
22429;SDS011;11382;48.086;11.632;2024-02-23T10:36:59;0.70;;;0.40;;
22429;SDS011;11382;48.086;11.632;2024-02-23T10:39:27;0.25;;;0.25;;
22429;SDS011;11382;48.086;11.632;2024-02-23T10:41:58;0.40;;;0.40;;
22429;SDS011;11382;48.086;11.632;2024-02-23T10:44:31;0.43;;;0.43;;
22429;SDS011;11382;48.086;11.632;2024-02-23T10:47:00;1.60;;;0.57;;
22429;SDS011;11382;48.086;11.632;2024-02-23T10:49:29;0.43;;;0.30;;
22429;SDS011;11382;48.086;11.632;2024-02-23T10:51:59;1.02;;;0.30;;
22429;SDS011;11382;48.086;11.632;2024-02-23T10:54:29;2.45;;;0.55;;
22429;SDS011;11382;48.086;11.632;2024-02-23T10:56:59;1.55;;;0.40;;
22429;SDS011;11382;48.086;11.632;2024-02-23T10:59:29;0.30;;;0.30;;
22429;SDS011;11382;48.086;11.632;2024-02-23T11:01:59;0.47;;;0.30;;
22429;SDS011;11382;48.086;11.632;2024-02-23T11:04:27;0.20;;;0.20;;
22429;SDS011;11382;48.086;11.632;2024-02-23T11:06:58;1.27;;;0.40;;
22429;SDS011;11382;48.086;11.632;2024-02-23T11:09:31;0.50;;;0.40;;
22429;SDS011;11382;48.086;11.632;2024-02-23T11:12:03;2.95;;;0.40;;
22429;SDS011;11382;48.086;11.632;2024-02-23T11:14:34;0.20;;;0.20;;
22429;SDS011;11382;48.086;11.632;2024-02-23T11:17:05;0.45;;;0.30;;
22429;SDS011;11382;48.086;11.632;2024-02-23T11:19:33;0.70;;;0.30;;
22429;SDS011;11382;48.086;11.632;2024-02-23T11:22:03;0.93;;;0.63;;
22429;SDS011;11382;48.086;11.632;2024-02-23T11:24:42;2.05;;;0.57;;
22429;SDS011;11382;48.086;11.632;2024-02-23T11:27:13;2.10;;;0.57;;
22429;SDS011;11382;48.086;11.632;2024-02-23T11:29:45;0.50;;;0.40;;
22429;SDS011;11382;48.086;11.632;2024-02-23T11:32:14;0.40;;;0.38;;
22429;SDS011;11382;48.086;11.632;2024-02-23T11:34:53;1.20;;;0.30;;
22429;SDS011;11382;48.086;11.632;2024-02-23T11:37:23;0.73;;;0.50;;
22429;SDS011;11382;48.086;11.632;2024-02-23T11:39:51;0.98;;;0.43;;
22429;SDS011;11382;48.086;11.632;2024-02-23T11:42:20;0.95;;;0.77;;
22429;SDS011;11382;48.086;11.632;2024-02-23T11:44:50;0.95;;;0.60;;
22429;SDS011;11382;48.086;11.632;2024-02-23T11:47:22;1.80;;;0.30;;
22429;SDS011;11382;48.086;11.632;2024-02-23T11:49:50;2.35;;;1.10;;
22429;SDS011;11382;48.086;11.632;2024-02-23T11:52:18;0.75;;;0.30;;
22429;SDS011;11382;48.086;11.632;2024-02-23T11:54:46;1.00;;;0.60;;
22429;SDS011;11382;48.086;11.632;2024-02-23T11:57:14;2.55;;;0.82;;
22429;SDS011;11382;48.086;11.632;2024-02-23T11:59:43;1.73;;;0.57;;
22429;SDS011;11382;48.086;11.632;2024-02-23T12:02:12;2.13;;;1.40;;
22429;SDS011;11382;48.086;11.632;2024-02-23T12:04:42;0.90;;;0.80;;
22429;SDS011;11382;48.086;11.632;2024-02-23T12:07:10;1.98;;;1.05;;
22429;SDS011;11382;48.086;11.632;2024-02-23T12:09:39;1.98;;;1.17;;
22429;SDS011;11382;48.086;11.632;2024-02-23T12:12:08;1.40;;;0.90;;
22429;SDS011;11382;48.086;11.632;2024-02-23T12:14:37;1.92;;;1.20;;
22429;SDS011;11382;48.086;11.632;2024-02-23T12:17:05;1.83;;;0.95;;
22429;SDS011;11382;48.086;11.632;2024-02-23T12:19:37;0.55;;;0.40;;
22429;SDS011;11382;48.086;11.632;2024-02-23T12:22:08;1.83;;;0.82;;
22429;SDS011;11382;48.086;11.632;2024-02-23T12:24:39;2.63;;;1.40;;
22429;SDS011;11382;48.086;11.632;2024-02-23T12:27:08;2.03;;;0.73;;
22429;SDS011;11382;48.086;11.632;2024-02-23T12:29:36;1.15;;;0.40;;
22429;SDS011;11382;48.086;11.632;2024-02-23T12:32:04;1.48;;;0.28;;
22429;SDS011;11382;48.086;11.632;2024-02-23T12:34:33;2.83;;;0.30;;
22429;SDS011;11382;48.086;11.632;2024-02-23T12:37:02;0.25;;;0.22;;
22429;SDS011;11382;48.086;11.632;2024-02-23T12:39:33;0.50;;;0.35;;
22429;SDS011;11382;48.086;11.632;2024-02-23T12:42:01;2.35;;;0.40;;
22429;SDS011;11382;48.086;11.632;2024-02-23T12:44:29;3.92;;;0.30;;
22429;SDS011;11382;48.086;11.632;2024-02-23T12:46:57;0.47;;;0.40;;
22429;SDS011;11382;48.086;11.632;2024-02-23T12:49:25;0.38;;;0.30;;
22429;SDS011;11382;48.086;11.632;2024-02-23T12:51:56;1.15;;;0.22;;
22429;SDS011;11382;48.086;11.632;2024-02-23T12:54:24;0.20;;;0.20;;
22429;SDS011;11382;48.086;11.632;2024-02-23T12:56:53;0.57;;;0.30;;
22429;SDS011;11382;48.086;11.632;2024-02-23T12:59:24;2.05;;;0.25;;
22429;SDS011;11382;48.086;11.632;2024-02-23T13:01:52;0.22;;;0.22;;
22429;SDS011;11382;48.086;11.632;2024-02-23T13:04:21;0.40;;;0.22;;
22429;SDS011;11382;48.086;11.632;2024-02-23T13:06:49;0.55;;;0.35;;
22429;SDS011;11382;48.086;11.632;2024-02-23T13:09:17;0.63;;;0.35;;
22429;SDS011;11382;48.086;11.632;2024-02-23T13:11:45;1.08;;;0.20;;
22429;SDS011;11382;48.086;11.632;2024-02-23T13:14:15;0.43;;;0.20;;
22429;SDS011;11382;48.086;11.632;2024-02-23T13:16:44;0.20;;;0.20;;
22429;SDS011;11382;48.086;11.632;2024-02-23T13:19:12;0.30;;;0.20;;
22429;SDS011;11382;48.086;11.632;2024-02-23T13:21:40;0.40;;;0.30;;
22429;SDS011;11382;48.086;11.632;2024-02-23T13:24:08;0.50;;;0.25;;
22429;SDS011;11382;48.086;11.632;2024-02-23T13:26:36;0.50;;;0.38;;
22429;SDS011;11382;48.086;11.632;2024-02-23T13:29:07;0.95;;;0.25;;
22429;SDS011;11382;48.086;11.632;2024-02-23T13:31:37;1.25;;;0.60;;
22429;SDS011;11382;48.086;11.632;2024-02-23T13:34:05;0.32;;;0.20;;
22429;SDS011;11382;48.086;11.632;2024-02-23T13:36:33;2.15;;;0.32;;
22429;SDS011;11382;48.086;11.632;2024-02-23T13:39:02;0.50;;;0.30;;
22429;SDS011;11382;48.086;11.632;2024-02-23T13:41:30;1.23;;;0.30;;
22429;SDS011;11382;48.086;11.632;2024-02-23T13:43:58;1.00;;;0.40;;
22429;SDS011;11382;48.086;11.632;2024-02-23T13:46:26;1.13;;;0.45;;
22429;SDS011;11382;48.086;11.632;2024-02-23T13:49:02;0.50;;;0.38;;
22429;SDS011;11382;48.086;11.632;2024-02-23T13:51:33;9.70;;;0.73;;
22429;SDS011;11382;48.086;11.632;2024-02-23T13:54:01;1.52;;;0.43;;
22429;SDS011;11382;48.086;11.632;2024-02-23T13:56:30;1.15;;;0.40;;
22429;SDS011;11382;48.086;11.632;2024-02-23T13:58:58;0.95;;;0.68;;
22429;SDS011;11382;48.086;11.632;2024-02-23T14:01:26;0.88;;;0.35;;
22429;SDS011;11382;48.086;11.632;2024-02-23T14:03:54;0.60;;;0.30;;
22429;SDS011;11382;48.086;11.632;2024-02-23T14:06:24;0.93;;;0.60;;
22429;SDS011;11382;48.086;11.632;2024-02-23T14:08:52;0.40;;;0.40;;
22429;SDS011;11382;48.086;11.632;2024-02-23T14:11:20;0.40;;;0.40;;
22429;SDS011;11382;48.086;11.632;2024-02-23T14:13:49;1.10;;;0.70;;
22429;SDS011;11382;48.086;11.632;2024-02-23T14:16:17;0.30;;;0.30;;
22429;SDS011;11382;48.086;11.632;2024-02-23T14:18:45;0.50;;;0.20;;
22429;SDS011;11382;48.086;11.632;2024-02-23T14:21:15;0.20;;;0.20;;
22429;SDS011;11382;48.086;11.632;2024-02-23T14:23:46;0.40;;;0.22;;
22429;SDS011;11382;48.086;11.632;2024-02-23T14:26:14;0.22;;;0.20;;
22429;SDS011;11382;48.086;11.632;2024-02-23T14:28:42;1.55;;;0.50;;
22429;SDS011;11382;48.086;11.632;2024-02-23T14:31:10;0.32;;;0.30;;
22429;SDS011;11382;48.086;11.632;2024-02-23T14:33:38;1.45;;;0.20;;
22429;SDS011;11382;48.086;11.632;2024-02-23T14:36:08;0.20;;;0.10;;
22429;SDS011;11382;48.086;11.632;2024-02-23T14:38:36;0.50;;;0.30;;
22429;SDS011;11382;48.086;11.632;2024-02-23T14:41:05;3.08;;;0.43;;
22429;SDS011;11382;48.086;11.632;2024-02-23T14:43:35;0.40;;;0.40;;
22429;SDS011;11382;48.086;11.632;2024-02-23T14:46:03;0.75;;;0.30;;